Time;durP1;ratioP1;P1;durP2;ratioP2;P2;SDS_P1;SDS_P2;PMS_P1;PMS_P2;Temp;Humidity;BMP_temperature;BMP_pressure;BME280_temperature;BME280_humidity;BME280_pressure;Samples;Min_cycle;Max_cycle;Signal;HPM_P1;HPM_P2
2021/12/13 00:02:46;;;;;;;129.48;34.03;;;;;;;8.76;100.00;102320.53;10302620;28;20027;-96
2021/12/13 00:07:55;;;;;;;174.82;37.97;;;;;;;4.61;100.00;101765.84;10284030;28;20038;-85
2021/12/13 00:13:06;;;;;;;172.85;37.55;;;;;;;5.31;100.00;101830.75;10284395;28;20093;-85
2021/12/13 00:18:06;;;;;;;165.85;37.42;;;;;;;5.36;100.00;101760.88;10308876;28;20029;-85
2021/12/13 00:23:25;;;;;;;184.25;38.67;;;;;;;8.67;100.00;102322.63;10323977;28;20038;-85
2021/12/13 00:28:27;;;;;;;149.63;35.92;;;;;;;8.26;100.00;102305.09;10342665;28;20049;-96
2021/12/13 00:33:37;;;;;;;147.98;37.25;;;;;;;4.65;100.00;101764.41;10310926;28;20045;-96
2021/12/13 00:38:44;;;;;;;159.20;39.08;;;;;;;4.58;100.00;101733.47;10310512;28;20081;-95
2021/12/13 00:44:03;;;;;;;150.20;37.97;;;;;;;5.85;100.00;101906.69;10324232;28;20117;-85
2021/12/13 00:49:05;;;;;;;163.40;43.75;;;;;;;5.92;100.00;101882.13;10331412;28;20037;-85
2021/12/13 00:54:40;;;;;;;174.90;42.88;;;;;;;6.96;100.00;102128.47;10331589;28;20535;-85
2021/12/13 00:59:55;;;;;;;167.18;43.58;;;;;;;8.01;100.00;102260.88;10306544;28;20045;-95
2021/12/13 01:05:11;;;;;;;143.98;39.90;;;;;;;8.51;100.00;102340.28;10277889;28;20165;-96
2021/12/13 01:10:56;;;;;;;163.32;42.83;;;;;;;8.73;100.00;102342.91;10279598;28;20101;-96
2021/12/13 01:16:30;;;;;;;150.60;43.08;;;;;;;5.01;100.00;101850.84;10293828;28;20105;-96
2021/12/13 01:21:53;;;;;;;170.20;46.65;;;;;;;4.70;100.00;101832.03;10282764;28;20066;-95
2021/12/13 01:26:53;;;;;;;186.25;46.45;;;;;;;7.37;100.00;102135.91;10279352;28;20101;-96
2021/12/13 01:31:59;;;;;;;193.32;48.80;;;;;;;6.06;100.00;101960.50;10296579;28;20107;-95
2021/12/13 01:37:24;;;;;;;186.02;48.20;;;;;;;7.38;100.00;102241.75;10296449;28;20046;-96
2021/12/13 01:42:29;;;;;;;221.98;50.90;;;;;;;4.73;100.00;101825.31;10295575;28;20045;-85
2021/12/13 01:47:34;;;;;;;236.43;53.90;;;;;;;4.93;100.00;101825.56;10272848;28;20038;-85
2021/12/13 01:52:37;;;;;;;203.70;48.70;;;;;;;5.73;100.00;101951.97;10304306;28;20038;-85
2021/12/13 01:57:41;;;;;;;245.55;51.22;;;;;;;6.45;100.00;101994.66;10291316;28;20041;-96
2021/12/13 02:02:43;;;;;;;249.10;54.88;;;;;;;8.73;100.00;102376.69;10275895;28;20030;-96
2021/12/13 02:07:46;;;;;;;308.15;59.47;;;;;;;6.10;100.00;101997.34;10307629;28;20103;-95
2021/12/13 02:12:47;;;;;;;289.83;57.22;;;;;;;5.71;100.00;102001.34;10306705;28;20034;-95
2021/12/13 02:17:47;;;;;;;204.20;47.88;;;;;;;7.45;100.00;102160.41;10290708;28;20054;-95
2021/12/13 02:22:49;;;;;;;248.25;52.75;;;;;;;6.48;100.00;102103.69;10305440;28;20037;-84
2021/12/13 02:27:54;;;;;;;204.90;47.20;;;;;;;8.75;100.00;102388.31;10321833;28;20100;-85
2021/12/13 02:32:55;;;;;;;213.68;48.33;;;;;;;6.28;100.00;101963.19;10302726;28;20526;-85
2021/12/13 02:37:56;;;;;;;180.07;43.88;;;;;;;6.75;100.00;102098.44;10325487;28;20058;-84
2021/12/13 02:42:57;;;;;;;127.25;36.05;;;;;;;8.78;100.00;102411.78;10328132;28;20045;-95
2021/12/13 02:48:22;;;;;;;144.43;38.95;;;;;;;5.97;100.00;101958.94;10346734;28;20489;-95
2021/12/13 02:53:33;;;;;;;120.25;33.63;;;;;;;8.24;100.00;102334.63;10319068;28;20045;-86
2021/12/13 02:58:34;;;;;;;115.10;35.60;;;;;;;7.73;100.00;102254.59;10288332;28;20038;-85
2021/12/13 03:03:38;;;;;;;108.07;34.95;;;;;;;5.09;100.00;102004.63;10302810;28;20062;-85
2021/12/13 03:08:44;;;;;;;110.35;34.78;;;;;;;5.70;100.00;101901.28;10302281;28;20189;-85
2021/12/13 03:13:44;;;;;;;108.60;35.67;;;;;;;5.73;100.00;102034.78;10302372;28;20044;-85
2021/12/13 03:19:04;;;;;;;115.00;36.13;;;;;;;8.75;100.00;102412.19;10299607;28;20040;-86
2021/12/13 03:24:04;;;;;;;125.22;36.85;;;;;;;7.62;100.00;102225.84;10278452;28;20092;-85
2021/12/13 03:29:11;;;;;;;112.93;41.53;;;;;;;5.19;100.00;101964.22;10306457;28;20081;-85
2021/12/13 03:34:22;;;;;;;127.18;39.17;;;;;;;7.73;100.00;102277.41;10331438;28;20033;-85
2021/12/13 03:39:42;;;;;;;118.72;39.53;;;;;;;5.41;100.00;101987.78;10309941;28;20046;-85
2021/12/13 03:44:47;;;;;;;133.90;40.00;;;;;;;5.62;100.00;102002.50;10301359;28;20495;-85
2021/12/13 03:49:49;;;;;;;112.38;38.75;;;;;;;6.64;100.00;102188.25;10320153;28;20040;-85
2021/12/13 03:54:52;;;;;;;119.38;39.60;;;;;;;4.70;100.00;101883.00;10309751;28;20036;-95
2021/12/13 03:59:52;;;;;;;108.45;37.33;;;;;;;5.05;100.00;101969.50;10310956;28;20044;-96
2021/12/13 04:04:58;;;;;;;112.43;36.35;;;;;;;4.98;100.00;101993.16;10308545;28;20030;-85
2021/12/13 04:10:03;;;;;;;117.70;36.20;;;;;;;7.59;100.00;102328.53;10299972;28;20107;-85
2021/12/13 04:15:38;;;;;;;100.07;33.55;;;;;;;8.52;100.00;102423.50;10351835;28;20263;-86
2021/12/13 04:20:39;;;;;;;114.40;33.08;;;;;;;6.26;100.00;102136.53;10323449;28;20397;-85
2021/12/13 04:25:41;;;;;;;102.10;34.28;;;;;;;5.00;100.00;101901.00;10324762;28;20049;-95
2021/12/13 04:30:48;;;;;;;84.55;31.20;;;;;;;5.46;100.00;102066.41;10310047;28;20053;-94
2021/12/13 04:35:54;;;;;;;95.30;31.73;;;;;;;4.11;100.00;101884.72;10311038;28;20049;-95
2021/12/13 04:40:55;;;;;;;69.93;23.37;;;;;;;7.12;100.00;102329.16;10310377;28;20104;-96
2021/12/13 04:45:59;;;;;;;85.57;30.33;;;;;;;7.43;100.00;102364.44;10327355;28;20272;-96
2021/12/13 04:51:11;;;;;;;68.75;25.67;;;;;;;7.15;100.00;102309.59;10308049;28;20025;-86
2021/12/13 04:56:17;;;;;;;63.65;25.25;;;;;;;4.89;100.00;101890.59;10323692;28;20069;-86
2021/12/13 05:01:18;;;;;;;64.53;25.00;;;;;;;4.48;100.00;101893.00;10339980;28;20061;-85
2021/12/13 05:06:21;;;;;;;47.92;20.90;;;;;;;6.44;100.00;102277.47;10323605;28;20065;-85
2021/12/13 05:11:21;;;;;;;58.10;21.88;;;;;;;5.99;100.00;102295.81;10308257;28;20395;-95
2021/12/13 05:16:44;;;;;;;59.33;22.13;;;;;;;5.29;100.00;102109.44;10309131;28;20064;-95
2021/12/13 05:21:47;;;;;;;59.83;21.88;;;;;;;7.16;100.00;102429.06;10309997;28;20175;-96
2021/12/13 05:27:00;;;;;;;49.38;19.60;;;;;;;5.12;100.00;102023.34;10308976;28;20041;-96
2021/12/13 05:32:11;;;;;;;63.38;23.63;;;;;;;5.53;100.00;102170.31;10342871;28;20065;-95
2021/12/13 05:37:11;;;;;;;65.97;23.88;;;;;;;4.84;100.00;102068.53;10331120;28;20049;-86
2021/12/13 05:42:12;;;;;;;61.58;22.17;;;;;;;5.20;100.00;102096.94;10314587;28;20069;-95
2021/12/13 05:47:23;;;;;;;38.75;18.42;;;;;;;4.99;100.00;101967.53;10334065;28;20148;-94
2021/12/13 05:52:32;;;;;;;53.67;21.73;;;;;;;7.85;100.00;102502.50;10316230;28;20037;-96
2021/12/13 05:57:34;;;;;;;50.92;20.35;;;;;;;6.13;100.00;102275.00;10320398;28;20046;-95
2021/12/13 06:02:58;;;;;;;58.53;21.27;;;;;;;4.36;100.00;102007.13;10327824;28;20080;-87
2021/12/13 06:08:02;;;;;;;45.50;20.17;;;;;;;2.27;100.00;101583.03;10345198;28;20044;-86
2021/12/13 06:13:04;;;;;;;55.55;22.23;;;;;;;3.94;100.00;101809.63;10302980;28;20042;-86
2021/12/13 06:18:04;;;;;;;51.17;20.73;;;;;;;7.82;100.00;102468.09;10320011;28;20091;-86
2021/12/13 06:23:08;;;;;;;48.40;21.00;;;;;;;7.79;100.00;102473.13;10358765;28;20060;-86
2021/12/13 06:28:17;;;;;;;52.17;21.23;;;;;;;4.34;100.00;102006.47;10323999;28;20064;-86
2021/12/13 06:33:17;;;;;;;57.80;21.90;;;;;;;5.80;100.00;102265.25;10297111;28;20054;-86
2021/12/13 06:38:38;;;;;;;46.90;18.85;;;;;;;7.77;100.00;102470.59;10287681;28;20473;-96
2021/12/13 06:44:02;;;;;;;50.90;19.75;;;;;;;5.60;100.00;102196.69;10287290;28;20038;-86
2021/12/13 06:49:02;;;;;;;60.40;20.83;;;;;;;7.75;100.00;102477.31;10303440;28;20133;-86
2021/12/13 06:54:09;;;;;;;46.72;19.13;;;;;;;7.04;100.00;102398.59;10336920;28;20121;-86
2021/12/13 06:59:14;;;;;;;48.65;18.27;;;;;;;4.35;100.00;101976.28;10302447;28;20034;-86
2021/12/13 07:04:14;;;;;;;43.33;18.60;;;;;;;6.98;100.00;102434.97;10310854;28;20358;-86
2021/12/13 07:09:18;;;;;;;44.45;18.50;;;;;;;4.52;100.00;102028.78;10310110;28;20046;-86
2021/12/13 07:14:21;;;;;;;33.22;17.27;;;;;;;7.67;100.00;102506.56;10297287;28;20026;-85
2021/12/13 07:19:23;;;;;;;35.53;17.58;;;;;;;3.43;100.00;102030.81;10303368;28;20117;-94
2021/12/13 07:24:48;;;;;;;41.60;18.38;;;;;;;7.64;100.00;102514.31;10287991;28;20038;-96
2021/12/13 07:29:53;;;;;;;40.65;17.20;;;;;;;7.65;100.00;102510.53;10304425;28;20053;-95
2021/12/13 07:35:05;;;;;;;43.28;19.27;;;;;;;7.65;100.00;102510.53;10287334;28;20046;-95
2021/12/13 07:40:26;;;;;;;44.20;19.02;;;;;;;2.99;100.00;101746.56;10303431;28;20085;-94
2021/12/13 07:45:47;;;;;;;40.45;19.35;;;;;;;7.64;100.00;102514.31;10318656;28;20038;-95
2021/12/13 07:51:18;;;;;;;41.65;20.05;;;;;;;7.62;100.00;102527.38;10303545;28;20034;-95
2021/12/13 07:56:55;;;;;;;54.08;22.48;;;;;;;6.78;100.00;102421.00;10299503;28;20385;-95
2021/12/13 08:02:14;;;;;;;;;;;;;;;7.61;100.00;102525.69;10306579;28;20061;-95
2021/12/13 08:07:32;;;;;;;49.30;24.67;;;;;;;2.62;100.00;101793.59;10335139;28;19918;-94
2021/12/13 08:12:38;;;;;;;48.03;23.25;;;;;;;3.57;100.00;101991.09;10302873;28;20034;-86
2021/12/13 08:17:48;;;;;;;60.50;25.52;;;;;;;3.95;100.00;102012.94;10323567;28;20034;-85
2021/12/13 08:22:50;;;;;;;59.17;26.77;;;;;;;4.34;100.00;102120.97;10311590;28;20037;-92
2021/12/13 08:27:54;;;;;;;63.05;26.48;;;;;;;6.09;100.00;102392.09;10310349;28;20367;-96
2021/12/13 08:33:17;;;;;;;68.72;30.05;;;;;;;4.91;100.00;102098.63;10307664;28;20053;-86
2021/12/13 08:38:47;;;;;;;68.45;28.88;;;;;;;7.71;100.00;102555.50;10337335;28;20061;-85
2021/12/13 08:43:51;;;;;;;71.60;29.77;;;;;;;7.73;100.00;102569.88;10335695;28;20054;-85
2021/12/13 08:48:51;;;;;;;70.05;30.08;;;;;;;4.50;100.00;102079.09;10337467;28;20038;-85
2021/12/13 08:54:04;;;;;;;64.75;32.28;;;;;;;4.08;100.00;102032.25;10321729;28;20030;-85
2021/12/13 08:59:10;;;;;;;68.03;29.85;;;;;;;6.21;100.00;102363.25;10318856;28;20046;-93
2021/12/13 09:04:27;;;;;;;75.88;31.33;;;;;;;6.80;100.00;102397.03;10335893;28;20049;-93
2021/12/13 09:09:28;;;;;;;73.72;32.58;;;;;;;5.88;100.00;102304.47;10314586;28;20038;-93
2021/12/13 09:14:49;;;;;;;69.65;32.08;;;;;;;3.06;100.00;101789.38;10330696;28;20030;-91
2021/12/13 09:20:07;;;;;;;65.53;31.98;;;;;;;7.86;100.00;102578.25;10316361;28;20041;-93
2021/12/13 09:25:29;;;;;;;63.08;30.83;;;;;;;3.38;100.00;101985.09;10329479;28;20034;-90
2021/12/13 09:30:51;;;;;;;64.57;29.83;;;;;;;6.90;100.00;102414.00;10288009;28;1188398;-86
2021/12/13 09:36:05;;;;;;;68.15;31.65;;;;;;;4.74;100.00;102198.06;10331159;28;20049;-85
2021/12/13 09:41:21;;;;;;;53.50;28.38;;;;;;;7.97;100.00;102590.59;10344879;28;20042;-85
2021/12/13 09:46:40;;;;;;;58.63;29.25;;;;;;;5.63;100.00;102241.91;10356634;28;20477;-85
2021/12/13 09:51:53;;;;;;;57.83;28.98;;;;;;;5.24;100.00;102259.38;10280665;28;20038;-84
2021/12/13 09:56:54;;;;;;;64.22;29.98;;;;;;;6.69;100.00;102411.22;10328152;28;20136;-91
2021/12/13 10:01:56;;;;;;;50.63;26.75;;;;;;;4.35;100.00;102021.81;10331397;28;20038;-92
2021/12/13 10:07:02;;;;;;;47.08;25.98;;;;;;;6.70;100.00;102339.88;10316011;28;20107;-93
2021/12/13 10:12:10;;;;;;;68.80;30.88;;;;;;;5.53;100.00;102285.03;10339491;28;20060;-94
2021/12/13 10:17:15;;;;;;;46.42;25.98;;;;;;;5.31;100.00;102172.91;10333524;28;20034;-95
2021/12/13 10:22:17;;;;;;;45.40;25.25;;;;;;;3.42;100.00;101762.34;10316055;28;20061;-88
2021/12/13 10:27:18;;;;;;;37.88;21.77;;;;;;;4.73;100.00;102114.50;10299260;28;20042;-87
2021/12/13 10:32:25;;;;;;;33.85;21.83;;;;;;;4.16;100.00;101972.22;10272892;28;20050;-87
2021/12/13 10:37:31;;;;;;;37.72;21.73;;;;;;;2.59;100.00;101747.75;10302552;28;20479;-89
2021/12/13 10:42:35;;;;;;;36.45;20.63;;;;;;;3.50;100.00;101867.63;10290453;28;20041;-89
2021/12/13 10:47:39;;;;;;;32.63;19.50;;;;;;;4.29;100.00;101970.75;10309999;28;20041;-92
2021/12/13 10:52:41;;;;;;;34.95;20.33;;;;;;;0.85;100.00;101354.50;10313697;28;20029;-91
2021/12/13 10:57:44;;;;;;;37.05;19.40;;;;;;;5.24;100.00;102052.69;10313043;28;20049;-94
2021/12/13 11:02:45;;;;;;;32.60;19.10;;;;;;;3.55;100.00;101933.25;10314174;28;20370;-94
2021/12/13 11:07:45;;;;;;;29.23;18.27;;;;;;;7.25;100.00;102356.66;10311241;28;20030;-94
2021/12/13 11:12:50;;;;;;;34.55;17.98;;;;;;;5.82;100.00;102203.06;10312633;28;20034;-94
2021/12/13 11:17:51;;;;;;;30.17;17.75;;;;;;;4.89;100.00;102057.03;10297198;28;20034;-87
2021/12/13 11:22:52;;;;;;;38.03;18.60;;;;;;;8.29;100.00;102515.97;10314580;28;20512;-87
2021/12/13 11:27:52;;;;;;;33.20;17.60;;;;;;;5.18;100.00;102041.69;10341763;28;20156;-89
2021/12/13 11:32:56;;;;;;;25.88;17.30;;;;;;;6.96;100.00;102347.53;10326424;28;20046;-89
2021/12/13 11:38:06;;;;;;;34.72;16.35;;;;;;;7.30;100.00;102397.16;10343251;28;20057;-90
2021/12/13 11:43:44;;;;;;;32.47;18.08;;;;;;;8.71;100.00;102554.53;10311513;28;20049;-88
2021/12/13 11:48:56;;;;;;;31.67;16.85;;;;;;;3.40;100.00;101701.81;10348827;28;20487;-90
2021/12/13 11:54:29;;;;;;;28.90;17.23;;;;;;;8.78;100.00;102543.59;10311287;28;20030;-92
2021/12/13 11:59:54;;;;;;;29.13;16.25;;;;;;;5.05;100.00;102102.41;10311733;28;20046;-93
2021/12/13 12:05:26;;;;;;;27.60;15.90;;;;;;;3.49;100.00;101664.44;10329140;28;20230;-89
2021/12/13 12:10:52;;;;;;;22.02;14.25;;;;;;;6.81;100.00;102292.00;10327851;28;20038;-92
2021/12/13 12:15:55;;;;;;;30.05;15.40;;;;;;;5.31;100.00;102167.47;10326473;28;20052;-89
2021/12/13 12:21:32;;;;;;;26.35;14.77;;;;;;;8.82;100.00;102539.41;10308720;28;20045;-93
2021/12/13 12:26:33;;;;;;;35.65;15.68;;;;;;;4.97;100.00;101953.25;10328767;28;20042;-96
2021/12/13 12:31:37;;;;;;;26.38;14.60;;;;;;;5.08;100.00;102112.09;10315474;28;20089;-94
2021/12/13 12:36:47;;;;;;;28.85;15.65;;;;;;;7.62;100.00;102393.06;10312156;28;20132;-94
2021/12/13 12:42:10;;;;;;;23.85;13.68;;;;;;;6.42;100.00;102216.63;10328149;28;20034;-93
2021/12/13 12:47:10;;;;;;;23.65;14.40;;;;;;;4.96;100.00;102077.09;10335925;28;20433;-93
2021/12/13 12:52:11;;;;;;;31.63;15.65;;;;;;;6.46;100.00;102346.53;10318073;28;20029;-94
2021/12/13 12:57:11;;;;;;;24.70;14.80;;;;;;;4.62;100.00;101894.88;10333402;28;20050;-90
2021/12/13 13:02:14;;;;;;;30.85;14.52;;;;;;;4.95;100.00;101887.09;10332518;28;20515;-87
2021/12/13 13:07:17;;;;;;;24.80;14.80;;;;;;;3.09;100.00;101723.72;10331830;28;20034;-89
2021/12/13 13:12:29;;;;;;;25.92;14.15;;;;;;;2.87;100.00;101813.31;10345458;28;20044;-93
2021/12/13 13:17:36;;;;;;;24.30;14.88;;;;;;;4.34;100.00;101837.44;10349368;28;20171;-89
2021/12/13 13:22:38;;;;;;;25.55;14.60;;;;;;;4.15;100.00;101966.94;10324053;28;20100;-89
2021/12/13 13:27:39;;;;;;;22.27;14.43;;;;;;;2.52;100.00;101541.03;10306937;28;20045;-89
2021/12/13 13:32:39;;;;;;;22.27;14.10;;;;;;;6.28;100.00;102166.41;10291091;28;20103;-93
2021/12/13 13:37:41;;;;;;;25.15;14.57;;;;;;;3.31;100.00;101792.72;10291662;28;20061;-93
2021/12/13 13:42:53;;;;;;;25.73;14.15;;;;;;;3.58;100.00;101821.25;10307755;28;20030;-93
2021/12/13 13:47:58;;;;;;;27.42;15.85;;;;;;;6.16;100.00;102141.47;10308555;28;20041;-94
2021/12/13 13:53:06;;;;;;;35.28;17.15;;;;;;;3.35;100.00;101881.16;10291211;28;20038;-93
2021/12/13 13:58:08;;;;;;;30.13;18.35;;;;;;;4.05;100.00;101893.63;10308078;28;20030;-93
2021/12/13 14:03:10;;;;;;;37.35;17.90;;;;;;;6.59;100.00;102431.50;10291245;28;20030;-92
2021/12/13 14:08:25;;;;;;;30.83;17.73;;;;;;;6.70;100.00;102337.16;10306908;28;20035;-92
2021/12/13 14:13:26;;;;;;;39.40;22.08;;;;;;;8.43;100.00;102667.94;10291427;28;20064;-93
2021/12/13 14:18:28;;;;;;;51.88;21.17;;;;;;;5.16;100.00;102131.13;10305288;28;20073;-87
2021/12/13 14:23:31;;;;;;;44.60;20.83;;;;;;;6.12;100.00;102278.75;10312569;28;20026;-88
2021/12/13 14:28:36;;;;;;;43.28;22.15;;;;;;;6.55;100.00;102257.84;10311613;28;20042;-87
2021/12/13 14:33:42;;;;;;;40.63;22.67;;;;;;;3.50;100.00;101887.50;10320602;28;20042;-87
2021/12/13 14:38:58;;;;;;;48.80;21.40;;;;;;;5.27;100.00;102231.66;10292080;28;20463;-87
2021/12/13 14:44:01;;;;;;;45.83;22.25;;;;;;;6.12;100.00;102213.13;10317656;28;20699;-88
2021/12/13 14:49:09;;;;;;;46.00;21.38;;;;;;;8.20;100.00;102562.97;10313518;28;20040;-94
2021/12/13 14:54:11;;;;;;;37.50;19.70;;;;;;;6.81;100.00;102424.22;10338512;28;20033;-92
2021/12/13 14:59:11;;;;;;;42.40;21.27;;;;;;;4.25;100.00;102055.59;10313996;28;20031;-88
2021/12/13 15:04:22;;;;;;;42.75;19.80;;;;;;;3.28;100.00;101935.47;10288906;28;20541;-94
2021/12/13 15:09:29;;;;;;;37.55;19.35;;;;;;;2.54;100.00;101731.97;10290006;28;20050;-93
2021/12/13 15:14:33;;;;;;;42.58;20.25;;;;;;;5.34;100.00;102234.53;10288901;28;20481;-94
2021/12/13 15:19:33;;;;;;;43.30;18.65;;;;;;;8.05;100.00;102668.13;10288570;28;20038;-94
2021/12/13 15:24:36;;;;;;;37.08;20.15;;;;;;;2.82;100.00;101883.72;10287264;28;20042;-93
2021/12/13 15:29:36;;;;;;;31.25;17.25;;;;;;;6.63;100.00;102539.56;10287345;28;20149;-93
2021/12/13 15:34:51;;;;;;;36.55;19.13;;;;;;;5.01;100.00;102117.47;10304034;28;20058;-93
2021/12/13 15:40:02;;;;;;;35.15;18.67;;;;;;;5.61;100.00;102178.41;10287370;28;20069;-87
2021/12/13 15:45:08;;;;;;;37.83;19.90;;;;;;;5.04;100.00;102188.91;10328967;28;20092;-87
2021/12/13 15:50:31;;;;;;;36.22;18.23;;;;;;;7.85;100.00;102571.94;10285378;28;20030;-87
2021/12/13 15:55:35;;;;;;;38.90;20.60;;;;;;;3.35;100.00;101957.38;10308015;28;20061;-87
2021/12/13 16:00:37;;;;;;;38.70;21.10;;;;;;;4.46;100.00;102070.41;10287815;28;20544;-94
2021/12/13 16:05:38;;;;;;;43.95;20.77;;;;;;;4.84;100.00;102329.63;10288877;28;20041;-93
2021/12/13 16:10:38;;;;;;;37.53;19.08;;;;;;;6.33;100.00;102417.47;10289120;28;20034;-94
2021/12/13 16:15:39;;;;;;;36.42;19.38;;;;;;;4.71;100.00;102097.47;10302843;28;20030;-95
2021/12/13 16:20:43;;;;;;;34.10;18.50;;;;;;;6.07;100.00;102435.16;10298458;28;20041;-93
2021/12/13 16:25:47;;;;;;;37.20;20.17;;;;;;;7.63;100.00;102586.66;10311152;28;20034;-95
2021/12/13 16:31:03;;;;;;;37.95;19.88;;;;;;;7.62;100.00;102584.94;10342098;28;20052;-88
2021/12/13 16:36:35;;;;;;;28.92;16.40;;;;;;;3.53;100.00;102049.66;10344498;28;20069;-88
2021/12/13 16:41:38;;;;;;;33.70;18.33;;;;;;;2.87;100.00;101867.69;10326641;28;20034;-91
2021/12/13 16:46:39;;;;;;;37.30;18.23;;;;;;;5.60;100.00;102381.59;10269232;28;20078;-88
2021/12/13 16:51:46;;;;;;;33.20;19.15;;;;;;;4.59;100.00;102190.66;10299685;28;20071;-87
2021/12/13 16:56:47;;;;;;;30.38;18.33;;;;;;;2.89;100.00;101993.47;10331764;28;20054;-87
2021/12/13 17:01:52;;;;;;;31.85;18.38;;;;;;;4.64;100.00;102341.00;10307028;28;20549;-87
2021/12/13 17:07:03;;;;;;;36.73;19.47;;;;;;;3.83;100.00;102103.28;10299887;28;20039;-87
2021/12/13 17:12:09;;;;;;;36.13;18.55;;;;;;;2.89;100.00;101981.75;10268525;28;20030;-89
2021/12/13 17:17:10;;;;;;;33.95;18.83;;;;;;;4.36;100.00;102207.03;10269517;28;20030;-90
2021/12/13 17:22:11;;;;;;;37.58;18.90;;;;;;;5.33;100.00;102301.94;10284576;28;20121;-87
2021/12/13 17:27:14;;;;;;;34.97;18.83;;;;;;;5.19;100.00;102280.94;10284285;28;20041;-93
2021/12/13 17:32:41;;;;;;;28.80;17.45;;;;;;;3.10;100.00;101940.34;10275010;28;20121;-88
2021/12/13 17:37:53;;;;;;;37.78;18.77;;;;;;;5.16;100.00;102374.94;10308251;28;20046;-94
2021/12/13 17:43:07;;;;;;;35.53;20.15;;;;;;;1.91;100.00;101806.31;10276687;28;20452;-87
2021/12/13 17:48:10;;;;;;;39.75;20.40;;;;;;;7.38;100.00;102595.19;10274646;28;20482;-93
2021/12/13 17:53:38;;;;;;;35.33;19.33;;;;;;;7.37;100.00;102601.69;10307839;28;20073;-94
2021/12/13 17:58:54;;;;;;;37.72;19.90;;;;;;;5.45;100.00;102453.41;10290726;28;20378;-88
2021/12/13 18:04:02;;;;;;;37.17;20.55;;;;;;;7.34;100.00;102591.13;10290966;28;20030;-93
2021/12/13 18:09:24;;;;;;;38.70;20.60;;;;;;;7.35;100.00;102592.81;10290900;28;20046;-94
2021/12/13 18:14:34;;;;;;;35.10;18.88;;;;;;;7.33;100.00;102586.69;10306582;28;20038;-88
2021/12/13 18:19:38;;;;;;;31.85;19.55;;;;;;;5.29;100.00;102365.28;10305654;28;20031;-87
2021/12/13 18:24:39;;;;;;;35.78;20.52;;;;;;;4.60;100.00;102203.25;10288952;28;20101;-88
2021/12/13 18:29:45;;;;;;;30.48;18.92;;;;;;;4.77;100.00;102377.75;10288934;28;20105;-94
2021/12/13 18:34:45;;;;;;;32.43;19.03;;;;;;;4.86;100.00;102251.16;10274837;28;20046;-93
2021/12/13 18:39:48;;;;;;;31.70;18.13;;;;;;;3.46;100.00;102002.41;10273530;28;20089;-94
2021/12/13 18:44:55;;;;;;;29.77;18.38;;;;;;;4.71;100.00;102187.50;10273738;28;20066;-91
2021/12/13 18:49:58;;;;;;;33.80;17.30;;;;;;;4.11;100.00;102124.53;10275980;28;20041;-89
2021/12/13 18:55:19;;;;;;;33.55;18.33;;;;;;;7.32;100.00;102598.69;10272723;28;20026;-88
2021/12/13 19:00:24;;;;;;;31.63;17.65;;;;;;;5.34;100.00;102347.34;10303617;28;20045;-92
2021/12/13 19:05:30;;;;;;;33.15;19.95;;;;;;;7.26;100.00;102594.81;10304912;28;20034;-93
2021/12/13 19:10:33;;;;;;;;;;;;;;;7.25;100.00;102597.75;10287653;28;20049;-92
2021/12/13 19:15:36;;;;;;;30.58;18.50;;;;;;;5.18;100.00;102416.56;10286529;28;19919;-90
2021/12/13 19:20:44;;;;;;;33.65;19.55;;;;;;;4.71;100.00;102384.75;10270138;28;20482;-87
2021/12/13 19:25:48;;;;;;;33.35;18.90;;;;;;;4.94;100.00;102280.25;10270652;28;20043;-87
2021/12/13 19:30:58;;;;;;;33.00;17.75;;;;;;;2.74;100.00;102060.53;10284907;28;20476;-93
2021/12/13 19:36:18;;;;;;;33.78;20.00;;;;;;;3.50;100.00;102188.88;10286529;28;20089;-92
2021/12/13 19:41:30;;;;;;;29.83;18.58;;;;;;;2.21;100.00;101875.28;10272663;28;20079;-87
2021/12/13 19:46:33;;;;;;;33.67;19.65;;;;;;;5.68;100.00;102384.25;10270888;28;20034;-92
2021/12/13 19:51:46;;;;;;;32.03;19.00;;;;;;;4.23;100.00;102182.22;10288250;28;20038;-92
2021/12/13 19:56:50;;;;;;;30.42;20.10;;;;;;;3.71;100.00;102088.38;10274985;28;20049;-87
2021/12/13 20:02:07;;;;;;;30.70;20.33;;;;;;;5.12;100.00;102334.53;10301904;28;20087;-92
2021/12/13 20:07:17;;;;;;;32.65;19.98;;;;;;;7.14;100.00;102579.06;10329758;28;20050;-93
2021/12/13 20:12:27;;;;;;;32.80;18.90;;;;;;;1.66;100.00;101803.66;10316589;28;20042;-87
2021/12/13 20:17:29;;;;;;;32.25;20.05;;;;;;;5.14;100.00;102280.63;10315930;28;20045;-87
2021/12/13 20:22:32;;;;;;;33.55;19.40;;;;;;;4.60;100.00;102184.16;10318103;28;20037;-93
2021/12/13 20:27:56;;;;;;;30.42;19.20;;;;;;;7.08;100.00;102558.75;10285251;28;20386;-94
2021/12/13 20:33:02;;;;;;;32.13;19.65;;;;;;;7.05;100.00;102633.94;10299866;28;20145;-87
2021/12/13 20:38:12;;;;;;;31.35;19.92;;;;;;;3.11;100.00;101974.69;10317076;28;20050;-91
2021/12/13 20:43:19;;;;;;;29.00;19.45;;;;;;;5.72;100.00;102524.94;10285904;28;20038;-88
2021/12/13 20:48:23;;;;;;;29.30;18.85;;;;;;;4.02;100.00;102182.88;10284383;28;20400;-93
2021/12/13 20:53:25;;;;;;;27.40;18.45;;;;;;;4.73;100.00;102368.22;10300949;28;20049;-87
2021/12/13 20:58:51;;;;;;;31.52;20.70;;;;;;;3.57;100.00;101985.66;10298998;28;20046;-87
2021/12/13 21:03:55;;;;;;;30.83;18.70;;;;;;;6.98;100.00;102552.69;10289409;28;20041;-87
2021/12/13 21:09:02;;;;;;;30.38;19.77;;;;;;;5.63;100.00;102471.41;10339026;28;20042;-87
2021/12/13 21:14:09;;;;;;;28.83;19.58;;;;;;;5.98;100.00;102378.88;10291578;28;20042;-93
2021/12/13 21:19:40;;;;;;;26.00;17.42;;;;;;;4.31;100.00;102107.72;10292697;28;20466;-92
2021/12/13 21:24:49;;;;;;;29.95;18.50;;;;;;;4.74;100.00;102248.00;10289553;28;20034;-93
2021/12/13 21:29:52;;;;;;;28.95;18.30;;;;;;;2.58;100.00;102053.22;10292307;28;20057;-93
2021/12/13 21:35:28;;;;;;;24.35;16.95;;;;;;;4.20;100.00;102235.22;10291760;28;20049;-87
2021/12/13 21:40:34;;;;;;;26.42;17.65;;;;;;;2.46;100.00;101854.34;10294907;28;20061;-85
2021/12/13 21:45:39;;;;;;;;;;;;;;;6.93;100.00;102557.91;10291384;28;20080;-90
2021/12/13 21:50:53;;;;;;;25.10;17.13;;;;;;;1.35;100.00;101785.38;10323383;28;19946;-93
2021/12/13 21:55:57;;;;;;;28.58;18.63;;;;;;;1.61;100.00;101930.88;10275002;28;20030;-87
2021/12/13 22:01:36;;;;;;;28.10;18.50;;;;;;;5.98;100.00;102398.03;10273385;28;20072;-88
2021/12/13 22:06:40;;;;;;;25.73;17.55;;;;;;;4.19;100.00;102224.50;10305244;28;20046;-87
2021/12/13 22:12:03;;;;;;;29.27;17.42;;;;;;;4.01;100.00;102085.78;10289866;28;20038;-90
2021/12/13 22:17:11;;;;;;;29.77;18.70;;;;;;;0.13;100.00;101588.41;10305788;28;20134;-89
2021/12/13 22:22:14;;;;;;;27.58;18.52;;;;;;;5.46;100.00;102421.50;10289115;28;20065;-88
2021/12/13 22:27:17;;;;;;;26.85;17.85;;;;;;;4.94;100.00;102225.66;10289471;28;20084;-88
2021/12/13 22:32:18;;;;;;;27.00;18.42;;;;;;;4.12;100.00;102213.47;10304702;28;20046;-89
2021/12/13 22:37:25;;;;;;;28.08;18.27;;;;;;;4.65;100.00;102252.69;10305297;28;20138;-88
2021/12/13 22:42:26;;;;;;;26.13;18.00;;;;;;;4.37;100.00;102237.88;10320779;28;20088;-88
2021/12/13 22:47:29;;;;;;;29.08;17.90;;;;;;;4.44;100.00;102215.16;10303874;28;20045;-88
2021/12/13 22:52:31;;;;;;;28.50;18.52;;;;;;;4.64;100.00;102176.47;10303671;28;20034;-88
2021/12/13 22:57:32;;;;;;;29.23;17.83;;;;;;;3.45;100.00;102115.88;10303211;28;20468;-88
2021/12/13 23:02:34;;;;;;;27.60;16.90;;;;;;;3.98;100.00;102236.03;10272156;28;20070;-88
2021/12/13 23:07:35;;;;;;;29.52;17.55;;;;;;;2.90;100.00;102056.91;10287040;28;20038;-88